Startpagina
METAR-TAF:

METAR-TAF

Vliegvelden :

Manta, Ecuador

breedte: 00-57S, lengte: 080-41W, hoogte: 13 m

Actueel weer

Dit bericht is 42 minuten geleden gemaakt, om 13:00 UTC
Wind 3 kt uit het zuidoosten
Temperatuur 25°C
Vochtigheid 83%
Druk 1011 hPa
Zicht 10 km of meer
Gebroken wolken op 2000 ft

METAR: SEMT 101300Z 14003KT 9999 BKN020 25/22 Q1011 RMK A2987

Tijdstip: 08:42 (13:42 UTC)

Verwachting

Dit bericht is 2 uur en het 42 minuten geleden gemaakt, om 11:00 UTC
Verwachting geldig van 10 om 12 UTC tot 11 om 12 UTC
Wind 5 kt uit het westnoordwesten
Zicht 10 km of meer
Gebroken wolken op 2000 ft
Wijzigt naar
van 10 om 16 UTC tot 10 om 18 UTC
Wind 10 kt uit het westen
Verspreide wolken op 2000 ft
Verspreide wolken op 10000 ft
Wijzigt naar
van 11 om 00 UTC tot 11 om 02 UTC
Wind 5 kt uit het zuidwesten
Gebroken wolken op 2000 ft

TAF: SEMT 101100Z 1012/1112 30005KT 9999 BKN020 BECMG 1016/1018 27010KT SCT020 SCT100 BECMG 1100/1102 22005KT BKN020 TX30/1020Z TN24/1110Z

Waarnemingen en weersverwachtingen van meer dan 4000 vliegvelden (METAR en TAF).

De beschikbare stations zijn de gele en rode punten op de kaart.

Ga met uw muis naar het station om de naam te zien.

Klik dan om waarnemingen en weersverwachtingen te zien.

kaart wijzigen: klik op de groene knoppen met een zwart kruis om in te zoomen, op de groene knop met een streepje om uit te zoomen of op de groene pijlen voor aangrenzende kaarten.


METAR-TAF: